CCGS Louis S. St-Laurent — CGBN — position and weather

sailwx.info

Track history (hours):
 
Tides and Currents Weather Stations Pressure Air Temp Water Temp Dewpoint Dewpoint Depression Visibility Wind Speed Wind Dir Waves Ship Positions

Oceanographic research ship CCGS Louis S. St-Laurent (Canada)

Detailed information on ship capabilities available from ARCUS's ALIAS (Arctic Logistics Information and Support) project.

Last reported at 2016-Sep-27 03:00 UTC. Time now 2016-Sep-27 03:42 UTC.
Position N 75°54' W 139°54'.

Length 119.63 m; beam 24.38 m; draft 9.9 m.

MMSI: 316165000.

Barometer 1009.6 mb
Air temperature -4.7 ° C
Dewpoint -4.9 ° C

Date/timePositionNaut miles runAvg speedWind from/ knotsBaromVisibWave heightAir tempDewpointWater temp
2016-Sep-27 03:00N 75°54' W 139°54'8 2.8 1009.6 -4.7-4.9
2016-Sep-27 00:00N 75°48' W 140°18'6 6.0 210 / 81009.3 -4.3-4.5
2016-Sep-26 23:00N 75°42' W 140°18'1313.4 150 / 131009.3 -4.2-4.4
2016-Sep-26 22:00N 75°30' W 139°54'1312.8 150 / 91009.2 -4.2-4.4
2016-Sep-26 21:00N 75°18' W 139°36'2412.2 200 / 121009.2 -3.6-3.8
2016-Sep-26 19:00N 74°54' W 139°54'0 0.0 1009.1 -3.5-3.6
2016-Sep-26 18:00N 74°54' W 139°54'0 0.0 1009.0 -3.1-3.2
2016-Sep-26 17:00N 74°54' W 139°54'5 4.7 270 / 11008.8 -1.6-1.7
2016-Sep-26 16:00N 74°54' W 139°36'1110.9 110 / 121008.2 -1.5-1.5
2016-Sep-26 15:00N 74°54' W 138°54'1312.5 110 / 141008.0 -1.7-1.7
2016-Sep-26 14:00N 74°48' W 138°12'8 7.9 110 / 61008.1 -1.5-1.5
2016-Sep-26 13:00N 74°48' W 137°42'2512.6 100 / 51008.5 -1.4-1.4
2016-Sep-26 11:00N 74°36' W 136°18'1312.7 110 / 121009.7 -1.2-1.3
2016-Sep-26 10:00N 74°30' W 135°36'3 3.2 110 / 121010.2 -0.9-1.0
2016-Sep-26 09:00N 74°30' W 135°24'2 0.8 140 / 171010.8 -1.3-1.4
2016-Sep-26 07:00N 74°30' W 135°18'3712.2 140 / 111012.5 -0.9-0.9
2016-Sep-26 04:00N 74°06' W 133°36'1716.7 140 / 101014.3 -1.6-1.6
2016-Sep-26 03:00N 73°54' W 132°54'1514.6 140 / 101014.8 -1.4-1.5
2016-Sep-26 02:00N 73°48' W 132°06'1716.8 150 / 61015.2 -1.8-1.9
2016-Sep-26 01:00N 73°36' W 131°24'10 5.2 140 / 91015.3 -1.9-2.0
2016-Sep-25 23:00N 73°30' W 130°54'5611.2 210 / 51015.9 -2.3-2.4
2016-Sep-25 18:00N 73°30' W 134°12'0 0.0 240 / 71014.1 -1.3-1.4
2016-Sep-25 17:00N 73°30' W 134°12'0 0.0 250 / 31013.5 -0.9-1.0
2016-Sep-25 16:00N 73°30' W 134°12'3712.5 260 / 41013.5 -0.7-0.8
2016-Sep-25 13:00N 73°30' W 136°24'1313.4 210 / 91012.3 -0.4-0.4
2016-Sep-25 12:00N 73°24' W 137°06'1212.0 210 / 81011.7 -0.1-0.2
2016-Sep-25 11:00N 73°24' W 137°48'2 1.7 220 / 101011.3 0.1-0.0
2016-Sep-25 10:00N 73°24' W 137°54'2 0.9 230 / 91011.0 -0.0-0.2
2016-Sep-25 08:00N 73°24' W 137°48'4013.3 270 / 71010.3 -0.6-0.7
2016-Sep-25 05:00N 72°54' W 136°18'7 7.1 320 / 81009.2 -0.9-1.1
2016-Sep-25 04:00N 72°54' W 135°54'0 0.0 300 / 61008.8 -0.5-0.9
2016-Sep-25 03:00N 72°54' W 135°54'2 1.8 320 / 71008.0 -0.2-0.8
2016-Sep-25 02:00N 72°54' W 136°00'1514.9 330 / 121006.7 -0.2-1.2
2016-Sep-25 01:00N 72°42' W 135°30'1212.3 320 / 161005.8 -0.3-1.1
2016-Sep-25 00:00N 72°36' W 134°54'2612.8 320 / 161004.8 -0.2-0.5
2016-Sep-24 22:00N 72°18' W 133°54'0 0.0 290 / 131004.1 0.1-0.0
2016-Sep-24 21:00N 72°18' W 133°54'13 6.3 280 / 201003.1 -0.1-0.5
2016-Sep-24 19:00N 72°12' W 133°18'1616.3 270 / 171000.8 0.5 0.5
2016-Sep-24 18:00N 72°00' W 132°42'2110.3 260 / 201000.2 0.7 0.6
2016-Sep-24 16:00N 71°48' W 131°48'8 4.1 240 / 261000.0 1.3 0.4
2016-Sep-24 14:00N 71°42' W 131°30'1414.2 270 / 20998.5 1.4 0.9
2016-Sep-24 13:00N 71°30' W 131°06'1111.3 260 / 16998.1 1.6 0.9
2016-Sep-24 12:00N 71°24' W 130°36'10 9.7 260 / 12997.6 2.1 1.4
2016-Sep-24 11:00N 71°18' W 130°12'10 9.8 210 / 13996.8 3.7 1.7
2016-Sep-24 10:00N 71°12' W 129°48'10 9.8 210 / 11996.9 4.8 2.2
2016-Sep-24 09:00N 71°06' W 129°24'1716.8 240 / 17996.3 5.7 2.7
2016-Sep-24 08:00N 70°54' W 128°48'10 9.9 220 / 9996.2 6.1 3.2
2016-Sep-24 07:00N 70°48' W 128°24'10 9.9 200 / 12996.2 6.3 3.6
2016-Sep-24 06:00N 70°42' W 128°00'8 8.5 200 / 10995.7 6.2 3.3
2016-Sep-24 05:00N 70°36' W 127°42'1615.9 210 / 17994.9 6.9 3.3
2016-Sep-24 04:00N 70°36' W 126°54'1414.0 210 / 17994.6 8.3 3.1
2016-Sep-24 03:00N 70°36' W 126°12'1414.0 220 / 15994.5 7.8 3.8
2016-Sep-24 02:00N 70°36' W 125°30'3014.9 260 / 15993.4 8.4 3.8
2016-Sep-24 00:00N 70°36' W 124°00'1414.0 240 / 11992.0 6.5 3.7
2016-Sep-23 23:00N 70°36' W 123°18'10 5.0 250 / 9991.0 7.0 3.7
2016-Sep-23 21:00N 70°30' W 122°54'6 6.0 250 / 11989.8 6.8 4.2
2016-Sep-23 20:00N 70°36' W 122°54'0 0.0 250 / 15988.8 6.4 4.0
2016-Sep-23 19:00N 70°36' W 122°54'2 1.0 260 / 14987.7 7.2 4.2
2016-Sep-23 17:00N 70°36' W 122°48'8 8.5 230 / 15986.9 7.5 4.0
2016-Sep-23 16:00N 70°30' W 122°30'5413.4 170 / 7986.7 8.0 3.4
2016-Sep-23 12:00N 70°00' W 120°18'1211.9 150 / 11987.2 7.3 3.8
2016-Sep-23 11:00N 69°54' W 119°48'1211.9 120 / 13988.2 7.5 4.3
2016-Sep-23 10:00N 69°48' W 119°18'2612.9 120 / 13989.0 7.0 4.3
2016-Sep-23 08:00N 69°36' W 118°12'1212.1 120 / 13991.1 8.2 4.9
2016-Sep-23 07:00N 69°30' W 117°42'1212.1 120 / 14992.5 7.7 4.6
2016-Sep-23 06:00N 69°24' W 117°12'2412.2 120 / 20993.0 7.0 5.0
2016-Sep-23 04:00N 69°12' W 116°12'1414.1 110 / 13995.4 7.3 5.3
2016-Sep-23 03:00N 69°06' W 115°36'3014.9 120 / 15996.3 7.7 4.9
2016-Sep-23 01:00N 68°48' W 114°30'1414.4 120 / 15998.3 9.1 6.1
2016-Sep-23 00:00N 68°42' W 113°54'1212.5 120 / 17999.6 8.9 5.7
2016-Sep-22 23:00N 68°36' W 113°24'1818.0 140 / 181000.5 8.3 5.6
2016-Sep-22 22:00N 68°18' W 113°24'1312.6 140 / 201000.8 9.3 5.8
2016-Sep-22 21:00N 68°12' W 113°54'2713.5 150 / 201001.3 9.3 5.6
2016-Sep-22 19:00N 67°54' W 114°48'2 2.3 160 / 111002.3 10.9 5.8
2016-Sep-22 18:00N 67°54' W 114°54'0 0.0 160 / 71003.0 10.7 4.9
2016-Sep-22 17:00N 67°54' W 114°54'5 1.5 130 / 31003.6 8.4 4.5
2016-Sep-22 14:00N 67°54' W 115°06'0 0.0 180 / 41005.7 6.3 3.2
2016-Sep-22 12:00N 67°54' W 115°06'0 0.0 160 / 61007.1 5.9 3.1
2016-Sep-22 11:00N 67°54' W 115°06'0 0.0 210 / 41007.5 6.7 3.3
2016-Sep-22 10:00N 67°54' W 115°06'0 0.0 210 / 71007.4 6.5 3.3
2016-Sep-22 09:00N 67°54' W 115°06'0 0.0 220 / 41007.5 6.7 3.6
2016-Sep-22 06:00N 67°54' W 115°06'0 0.0 220 / 101007.5 8.1 4.0
2016-Sep-22 05:00N 67°54' W 115°06'0 0.0 210 / 61007.8 7.8 3.7
2016-Sep-22 04:00N 67°54' W 115°06'0 0.0 200 / 111007.4 8.6 3.8
2016-Sep-22 03:00N 67°54' W 115°06'0 0.0 230 / 111007.7 8.7 4.2
2016-Sep-21 23:00N 67°54' W 115°06'0 0.0 220 / 211007.5 11.6 4.7
2016-Sep-21 21:00N 67°54' W 115°06'0 0.0 210 / 211007.9 11.1 4.4
2016-Sep-21 20:00N 67°54' W 115°06'0 0.0 230 / 271008.0 10.5 3.8
2016-Sep-21 19:00N 67°54' W 115°06'0 0.0 230 / 191008.5 9.2 3.6
2016-Sep-21 17:00N 67°54' W 115°06'0 0.0 230 / 211009.3 7.4 2.9
2016-Sep-21 15:00N 67°54' W 115°06'0 0.0 230 / 161009.7 6.7 2.3
2016-Sep-21 14:00N 67°54' W 115°06'0 0.0 220 / 211009.3 7.0 2.4
2016-Sep-21 13:00N 67°54' W 115°06'0 0.0 220 / 171009.9 6.9 2.5
2016-Sep-21 11:00N 67°54' W 115°06'2 1.1 210 / 241010.2 7.1 2.0
2016-Sep-21 09:00N 67°54' W 115°00'0 0.0 210 / 241011.3 7.0 1.4
2016-Sep-21 08:00N 67°54' W 115°00'0 0.0 200 / 211011.9 7.0 1.5
2016-Sep-21 05:00N 67°54' W 115°00'0 0.0 220 / 211012.8 6.6 2.4
2016-Sep-21 04:00N 67°54' W 115°00'0 0.0 220 / 191013.4 6.8 2.5
2016-Sep-21 03:00N 67°54' W 115°00'0 0.0 210 / 171013.5 7.0 2.6
2016-Sep-21 02:00N 67°54' W 115°00'0 0.0 220 / 181013.8 7.6 2.7
2016-Sep-21 01:00N 67°54' W 115°00'0 0.0 230 / 121014.2 7.8 1.0
2016-Sep-21 00:00N 67°54' W 115°00'0 0.0 230 / 111014.8 8.4 0.1
2016-Sep-20 22:00N 67°54' W 115°00'0 0.0 230 / 151016.0 7.7-0.6
2016-Sep-20 20:00N 67°54' W 115°00'0 0.0 250 / 161016.4 6.9-1.1
2016-Sep-20 19:00N 67°54' W 115°00'0 0.0 200 / 121016.8 6.4 1.3
2016-Sep-20 18:00N 67°54' W 115°00'0 0.0 230 / 121017.4 5.5 1.0
2016-Sep-20 17:00N 67°54' W 115°00'0 0.0 220 / 111017.4 4.0 0.8
2016-Sep-20 16:00N 67°54' W 115°00'0 0.0 220 / 131017.5 2.9 0.1
2016-Sep-20 15:00N 67°54' W 115°00'0 0.0 220 / 131017.7 2.5-0.2
2016-Sep-20 13:00N 67°54' W 115°00'0 0.0 230 / 81018.3 1.0-1.3
2016-Sep-20 11:00N 67°54' W 115°00'0 0.0 230 / 81018.3 0.4-1.9
2016-Sep-20 07:00N 67°54' W 115°00'0 0.0 220 / 101018.4 0.9-1.8
2016-Sep-20 06:00N 67°54' W 115°00'0 0.0 230 / 111018.4 2.1-2.1
2016-Sep-20 04:00N 67°54' W 115°00'0 0.0 230 / 91018.2 3.5-2.3
2016-Sep-20 03:00N 67°54' W 115°00'0 0.0 240 / 31018.2 4.7-0.9
2016-Sep-20 02:00N 67°54' W 115°00'0 0.0 340 / 41018.1 4.2-2.3
2016-Sep-20 01:00N 67°54' W 115°00'0 0.0 350 / 121017.6 4.1-1.6
2016-Sep-20 00:00N 67°54' W 115°00'0 0.0 330 / 81017.2 4.3-1.3
2016-Sep-19 22:00N 67°54' W 115°00'0 0.0 330 / 111016.1 4.1-0.9
2016-Sep-19 19:00N 67°54' W 115°00'0 0.0 310 / 91015.0 3.5 0.5
2016-Sep-19 18:00N 67°54' W 115°00'0 0.0 310 / 111014.3 3.5 0.3
2016-Sep-19 17:00N 67°54' W 115°00'0 0.0 320 / 81013.9 3.5 0.4
2016-Sep-19 15:00N 67°54' W 115°00'0 0.0 340 / 151012.3 3.3 0.6
2016-Sep-19 11:00N 67°54' W 115°00'0 0.0 260 / 121009.5 3.9 3.0
2016-Sep-19 10:00N 67°54' W 115°00'0 0.0 230 / 111008.7 3.7 2.8
2016-Sep-19 09:00N 67°54' W 115°00'0 0.0 230 / 161008.0 3.7 2.9
2016-Sep-19 08:00N 67°54' W 115°00'0 0.0 220 / 141007.5 3.3 2.6
2016-Sep-19 06:00N 67°54' W 115°00'0 0.0 260 / 121006.9 3.7 2.8
2016-Sep-19 05:00N 67°54' W 115°00'0 0.0 240 / 121006.6 4.5 3.2
2016-Sep-19 04:00N 67°54' W 115°00'0 0.0 230 / 111006.4 5.8 4.1
2016-Sep-19 02:00N 67°54' W 115°00'0 0.0 250 / 111006.0 7.6 4.4
2016-Sep-19 01:00N 67°54' W 115°00'0 0.0 280 / 101005.5 9.2 5.1
2016-Sep-19 00:00N 67°54' W 115°00'0 0.0 310 / 71005.1 9.0 4.1
2016-Sep-18 21:00N 67°54' W 115°00'0 0.0 020 / 21004.1 6.0 4.1
2016-Sep-18 19:00N 67°54' W 115°00'0 0.0 240 / 51003.8 4.2 2.7
2016-Sep-18 16:00N 67°54' W 115°00'2 0.8 270 / 61003.3 0.7 0.3
2016-Sep-18 13:00N 67°54' W 114°54'1616.4 290 / 91001.7 1.3 0.7
2016-Sep-18 12:00N 68°06' W 114°24'3612.0 320 / 131000.5 1.9 1.8
2016-Sep-18 09:00N 68°36' W 113°30'1919.4 330 / 21998.1 4.9 4.1
2016-Sep-18 08:00N 68°48' W 114°12'3115.3 290 / 18997.8 5.3 4.0
2016-Sep-18 06:00N 69°00' W 115°30'2120.9 300 / 17997.6 3.8 3.3
2016-Sep-18 05:00N 69°12' W 116°18'1616.0 300 / 17997.5 3.0 2.5
2016-Sep-18 04:00N 69°18' W 117°00'1818.0 320 / 13997.4 2.4 1.6
2016-Sep-18 03:00N 69°24' W 117°48'1414.0 310 / 14997.4 2.3 1.3
2016-Sep-18 02:00N 69°30' W 118°24'7117.7 310 / 14997.3 2.5 1.1
2016-Sep-17 22:00N 69°54' W 121°36'3115.5 280 / 17996.4 3.0 1.1
2016-Sep-17 20:00N 69°54' W 123°06'1514.6 270 / 9995.5 2.6 0.9
2016-Sep-17 19:00N 69°42' W 123°30'9 8.7 280 / 5995.2 2.9 1.2
2016-Sep-17 18:00N 69°36' W 123°48'6 3.2 300 / 8995.3 3.8 2.4
2016-Sep-17 16:00N 69°42' W 123°42'2 2.1 330 / 12994.5 3.3 2.3
2016-Sep-17 15:00N 69°42' W 123°36'6 3.0 330 / 10994.0 3.7 3.3
2016-Sep-17 13:00N 69°48' W 123°36'1818.1 300 / 9993.4 4.2 4.0
2016-Sep-17 12:00N 70°06' W 123°42'2019.7 270 / 8993.0 3.8 3.7
2016-Sep-17 11:00N 70°24' W 124°06'1717.0 240 / 8992.9 3.2 3.1
2016-Sep-17 10:00N 70°36' W 124°42'1615.6 260 / 13992.6 3.1 3.0
2016-Sep-17 09:00N 70°48' W 125°12'1615.5 270 / 9992.6 2.6 2.6
2016-Sep-17 08:00N 71°00' W 125°42'3517.3 240 / 6992.4 2.6 2.6
2016-Sep-17 06:00N 71°30' W 126°36'2020.3 200 / 11992.3 2.4 2.3
2016-Sep-17 05:00N 71°48' W 127°06'1111.1 190 / 12992.6 2.1 2.1
2016-Sep-17 04:00N 71°54' W 127°36'1818.1 160 / 8993.4 1.9 0.5
2016-Sep-17 03:00N 72°12' W 127°42'   150 / 10994.2 1.1-1.1
Track history (hours):
 
Tides and Currents Weather Stations Pressure Air Temp Water Temp Dewpoint Dewpoint Depression Visibility Wind Speed Wind Dir Waves Ship Positions

Oceanographic research ship CCGS Louis S. St-Laurent (Canada)

Detailed information on ship capabilities available from ARCUS's ALIAS (Arctic Logistics Information and Support) project.

Last reported at 2016-Sep-27 03:00 UTC. Time now 2016-Sep-27 03:42 UTC.
Position N 75°54' W 139°54'.

Length 119.63 m; beam 24.38 m; draft 9.9 m.

MMSI: 316165000.

Barometer 1009.6 mb
Air temperature -4.7 ° C
Dewpoint -4.9 ° C

Date/timePositionNaut miles runAvg speedWind from/ knotsBaromVisibWave heightAir tempDewpointWater temp
2016-Sep-27 03:00N 75°54' W 139°54'8 2.8 1009.6 -4.7-4.9
2016-Sep-27 00:00N 75°48' W 140°18'6 6.0 210 / 81009.3 -4.3-4.5
2016-Sep-26 23:00N 75°42' W 140°18'1313.4 150 / 131009.3 -4.2-4.4
2016-Sep-26 22:00N 75°30' W 139°54'1312.8 150 / 91009.2 -4.2-4.4
2016-Sep-26 21:00N 75°18' W 139°36'2412.2 200 / 121009.2 -3.6-3.8
2016-Sep-26 19:00N 74°54' W 139°54'0 0.0 1009.1 -3.5-3.6
2016-Sep-26 18:00N 74°54' W 139°54'0 0.0 1009.0 -3.1-3.2
2016-Sep-26 17:00N 74°54' W 139°54'5 4.7 270 / 11008.8 -1.6-1.7
2016-Sep-26 16:00N 74°54' W 139°36'1110.9 110 / 121008.2 -1.5-1.5
2016-Sep-26 15:00N 74°54' W 138°54'1312.5 110 / 141008.0 -1.7-1.7
2016-Sep-26 14:00N 74°48' W 138°12'8 7.9 110 / 61008.1 -1.5-1.5
2016-Sep-26 13:00N 74°48' W 137°42'2512.6 100 / 51008.5 -1.4-1.4
2016-Sep-26 11:00N 74°36' W 136°18'1312.7 110 / 121009.7 -1.2-1.3
2016-Sep-26 10:00N 74°30' W 135°36'3 3.2 110 / 121010.2 -0.9-1.0
2016-Sep-26 09:00N 74°30' W 135°24'2 0.8 140 / 171010.8 -1.3-1.4
2016-Sep-26 07:00N 74°30' W 135°18'3712.2 140 / 111012.5 -0.9-0.9
2016-Sep-26 04:00N 74°06' W 133°36'1716.7 140 / 101014.3 -1.6-1.6
2016-Sep-26 03:00N 73°54' W 132°54'1514.6 140 / 101014.8 -1.4-1.5
2016-Sep-26 02:00N 73°48' W 132°06'1716.8 150 / 61015.2 -1.8-1.9
2016-Sep-26 01:00N 73°36' W 131°24'10 5.2 140 / 91015.3 -1.9-2.0
2016-Sep-25 23:00N 73°30' W 130°54'5611.2 210 / 51015.9 -2.3-2.4
2016-Sep-25 18:00N 73°30' W 134°12'0 0.0 240 / 71014.1 -1.3-1.4
2016-Sep-25 17:00N 73°30' W 134°12'0 0.0 250 / 31013.5 -0.9-1.0
2016-Sep-25 16:00N 73°30' W 134°12'3712.5 260 / 41013.5 -0.7-0.8
2016-Sep-25 13:00N 73°30' W 136°24'1313.4 210 / 91012.3 -0.4-0.4
2016-Sep-25 12:00N 73°24' W 137°06'1212.0 210 / 81011.7 -0.1-0.2
2016-Sep-25 11:00N 73°24' W 137°48'2 1.7 220 / 101011.3 0.1-0.0
2016-Sep-25 10:00N 73°24' W 137°54'2 0.9 230 / 91011.0 -0.0-0.2
2016-Sep-25 08:00N 73°24' W 137°48'4013.3 270 / 71010.3 -0.6-0.7
2016-Sep-25 05:00N 72°54' W 136°18'7 7.1 320 / 81009.2 -0.9-1.1
2016-Sep-25 04:00N 72°54' W 135°54'0 0.0 300 / 61008.8 -0.5-0.9
2016-Sep-25 03:00N 72°54' W 135°54'2 1.8 320 / 71008.0 -0.2-0.8
2016-Sep-25 02:00N 72°54' W 136°00'1514.9 330 / 121006.7 -0.2-1.2
2016-Sep-25 01:00N 72°42' W 135°30'1212.3 320 / 161005.8 -0.3-1.1
2016-Sep-25 00:00N 72°36' W 134°54'2612.8 320 / 161004.8 -0.2-0.5
2016-Sep-24 22:00N 72°18' W 133°54'0 0.0 290 / 131004.1 0.1-0.0
2016-Sep-24 21:00N 72°18' W 133°54'13 6.3 280 / 201003.1 -0.1-0.5
2016-Sep-24 19:00N 72°12' W 133°18'1616.3 270 / 171000.8 0.5 0.5
2016-Sep-24 18:00N 72°00' W 132°42'2110.3 260 / 201000.2 0.7 0.6
2016-Sep-24 16:00N 71°48' W 131°48'8 4.1 240 / 261000.0 1.3 0.4
2016-Sep-24 14:00N 71°42' W 131°30'1414.2 270 / 20998.5 1.4 0.9
2016-Sep-24 13:00N 71°30' W 131°06'1111.3 260 / 16998.1 1.6 0.9
2016-Sep-24 12:00N 71°24' W 130°36'10 9.7 260 / 12997.6 2.1 1.4
2016-Sep-24 11:00N 71°18' W 130°12'10 9.8 210 / 13996.8 3.7 1.7
2016-Sep-24 10:00N 71°12' W 129°48'10 9.8 210 / 11996.9 4.8 2.2
2016-Sep-24 09:00N 71°06' W 129°24'1716.8 240 / 17996.3 5.7 2.7
2016-Sep-24 08:00N 70°54' W 128°48'10 9.9 220 / 9996.2 6.1 3.2
2016-Sep-24 07:00N 70°48' W 128°24'10 9.9 200 / 12996.2 6.3 3.6
2016-Sep-24 06:00N 70°42' W 128°00'8 8.5 200 / 10995.7 6.2 3.3
2016-Sep-24 05:00N 70°36' W 127°42'1615.9 210 / 17994.9 6.9 3.3
2016-Sep-24 04:00N 70°36' W 126°54'1414.0 210 / 17994.6 8.3 3.1
2016-Sep-24 03:00N 70°36' W 126°12'1414.0 220 / 15994.5 7.8 3.8
2016-Sep-24 02:00N 70°36' W 125°30'3014.9 260 / 15993.4 8.4 3.8
2016-Sep-24 00:00N 70°36' W 124°00'1414.0 240 / 11992.0 6.5 3.7
2016-Sep-23 23:00N 70°36' W 123°18'10 5.0 250 / 9991.0 7.0 3.7
2016-Sep-23 21:00N 70°30' W 122°54'6 6.0 250 / 11989.8 6.8 4.2
2016-Sep-23 20:00N 70°36' W 122°54'0 0.0 250 / 15988.8 6.4 4.0
2016-Sep-23 19:00N 70°36' W 122°54'2 1.0 260 / 14987.7 7.2 4.2
2016-Sep-23 17:00N 70°36' W 122°48'8 8.5 230 / 15986.9 7.5 4.0
2016-Sep-23 16:00N 70°30' W 122°30'5413.4 170 / 7986.7 8.0 3.4
2016-Sep-23 12:00N 70°00' W 120°18'1211.9 150 / 11987.2 7.3 3.8
2016-Sep-23 11:00N 69°54' W 119°48'1211.9 120 / 13988.2 7.5 4.3
2016-Sep-23 10:00N 69°48' W 119°18'2612.9 120 / 13989.0 7.0 4.3
2016-Sep-23 08:00N 69°36' W 118°12'1212.1 120 / 13991.1 8.2 4.9
2016-Sep-23 07:00N 69°30' W 117°42'1212.1 120 / 14992.5 7.7 4.6
2016-Sep-23 06:00N 69°24' W 117°12'2412.2 120 / 20993.0 7.0 5.0
2016-Sep-23 04:00N 69°12' W 116°12'1414.1 110 / 13995.4 7.3 5.3
2016-Sep-23 03:00N 69°06' W 115°36'3014.9 120 / 15996.3 7.7 4.9
2016-Sep-23 01:00N 68°48' W 114°30'1414.4 120 / 15998.3 9.1 6.1
2016-Sep-23 00:00N 68°42' W 113°54'1212.5 120 / 17999.6 8.9 5.7
2016-Sep-22 23:00N 68°36' W 113°24'1818.0 140 / 181000.5 8.3 5.6
2016-Sep-22 22:00N 68°18' W 113°24'1312.6 140 / 201000.8 9.3 5.8
2016-Sep-22 21:00N 68°12' W 113°54'2713.5 150 / 201001.3 9.3 5.6
2016-Sep-22 19:00N 67°54' W 114°48'2 2.3 160 / 111002.3 10.9 5.8
2016-Sep-22 18:00N 67°54' W 114°54'0 0.0 160 / 71003.0 10.7 4.9
2016-Sep-22 17:00N 67°54' W 114°54'5 1.5 130 / 31003.6 8.4 4.5
2016-Sep-22 14:00N 67°54' W 115°06'0 0.0 180 / 41005.7 6.3 3.2
2016-Sep-22 12:00N 67°54' W 115°06'0 0.0 160 / 61007.1 5.9 3.1
2016-Sep-22 11:00N 67°54' W 115°06'0 0.0 210 / 41007.5 6.7 3.3
2016-Sep-22 10:00N 67°54' W 115°06'0 0.0 210 / 71007.4 6.5 3.3
2016-Sep-22 09:00N 67°54' W 115°06'0 0.0 220 / 41007.5 6.7 3.6
2016-Sep-22 06:00N 67°54' W 115°06'0 0.0 220 / 101007.5 8.1 4.0
2016-Sep-22 05:00N 67°54' W 115°06'0 0.0 210 / 61007.8 7.8 3.7
2016-Sep-22 04:00N 67°54' W 115°06'0 0.0 200 / 111007.4 8.6 3.8
2016-Sep-22 03:00N 67°54' W 115°06'0 0.0 230 / 111007.7 8.7 4.2
2016-Sep-21 23:00N 67°54' W 115°06'0 0.0 220 / 211007.5 11.6 4.7
2016-Sep-21 21:00N 67°54' W 115°06'0 0.0 210 / 211007.9 11.1 4.4
2016-Sep-21 20:00N 67°54' W 115°06'0 0.0 230 / 271008.0 10.5 3.8
2016-Sep-21 19:00N 67°54' W 115°06'0 0.0 230 / 191008.5 9.2 3.6
2016-Sep-21 17:00N 67°54' W 115°06'0 0.0 230 / 211009.3 7.4 2.9
2016-Sep-21 15:00N 67°54' W 115°06'0 0.0 230 / 161009.7 6.7 2.3
2016-Sep-21 14:00N 67°54' W 115°06'0 0.0 220 / 211009.3 7.0 2.4
2016-Sep-21 13:00N 67°54' W 115°06'0 0.0 220 / 171009.9 6.9 2.5
2016-Sep-21 11:00N 67°54' W 115°06'2 1.1 210 / 241010.2 7.1 2.0
2016-Sep-21 09:00N 67°54' W 115°00'0 0.0 210 / 241011.3 7.0 1.4
2016-Sep-21 08:00N 67°54' W 115°00'0 0.0 200 / 211011.9 7.0 1.5
2016-Sep-21 05:00N 67°54' W 115°00'0 0.0 220 / 211012.8 6.6 2.4
2016-Sep-21 04:00N 67°54' W 115°00'0 0.0 220 / 191013.4 6.8 2.5
2016-Sep-21 03:00N 67°54' W 115°00'0 0.0 210 / 171013.5 7.0 2.6
2016-Sep-21 02:00N 67°54' W 115°00'0 0.0 220 / 181013.8 7.6 2.7
2016-Sep-21 01:00N 67°54' W 115°00'0 0.0 230 / 121014.2 7.8 1.0
2016-Sep-21 00:00N 67°54' W 115°00'0 0.0 230 / 111014.8 8.4 0.1
2016-Sep-20 22:00N 67°54' W 115°00'0 0.0 230 / 151016.0 7.7-0.6
2016-Sep-20 20:00N 67°54' W 115°00'0 0.0 250 / 161016.4 6.9-1.1
2016-Sep-20 19:00N 67°54' W 115°00'0 0.0 200 / 121016.8 6.4 1.3
2016-Sep-20 18:00N 67°54' W 115°00'0 0.0 230 / 121017.4 5.5 1.0
2016-Sep-20 17:00N 67°54' W 115°00'0 0.0 220 / 111017.4 4.0 0.8
2016-Sep-20 16:00N 67°54' W 115°00'0 0.0 220 / 131017.5 2.9 0.1
2016-Sep-20 15:00N 67°54' W 115°00'0 0.0 220 / 131017.7 2.5-0.2
2016-Sep-20 13:00N 67°54' W 115°00'0 0.0 230 / 81018.3 1.0-1.3
2016-Sep-20 11:00N 67°54' W 115°00'0 0.0 230 / 81018.3 0.4-1.9
2016-Sep-20 07:00N 67°54' W 115°00'0 0.0 220 / 101018.4 0.9-1.8
2016-Sep-20 06:00N 67°54' W 115°00'0 0.0 230 / 111018.4 2.1-2.1
2016-Sep-20 04:00N 67°54' W 115°00'0 0.0 230 / 91018.2 3.5-2.3
2016-Sep-20 03:00N 67°54' W 115°00'0 0.0 240 / 31018.2 4.7-0.9
2016-Sep-20 02:00N 67°54' W 115°00'0 0.0 340 / 41018.1 4.2-2.3
2016-Sep-20 01:00N 67°54' W 115°00'0 0.0 350 / 121017.6 4.1-1.6
2016-Sep-20 00:00N 67°54' W 115°00'0 0.0 330 / 81017.2 4.3-1.3
2016-Sep-19 22:00N 67°54' W 115°00'0 0.0 330 / 111016.1 4.1-0.9
2016-Sep-19 19:00N 67°54' W 115°00'0 0.0 310 / 91015.0 3.5 0.5
2016-Sep-19 18:00N 67°54' W 115°00'0 0.0 310 / 111014.3 3.5 0.3
2016-Sep-19 17:00N 67°54' W 115°00'0 0.0 320 / 81013.9 3.5 0.4
2016-Sep-19 15:00N 67°54' W 115°00'0 0.0 340 / 151012.3 3.3 0.6
2016-Sep-19 11:00N 67°54' W 115°00'0 0.0 260 / 121009.5 3.9 3.0
2016-Sep-19 10:00N 67°54' W 115°00'0 0.0 230 / 111008.7 3.7 2.8
2016-Sep-19 09:00N 67°54' W 115°00'0 0.0 230 / 161008.0 3.7 2.9
2016-Sep-19 08:00N 67°54' W 115°00'0 0.0 220 / 141007.5 3.3 2.6
2016-Sep-19 06:00N 67°54' W 115°00'0 0.0 260 / 121006.9 3.7 2.8
2016-Sep-19 05:00N 67°54' W 115°00'0 0.0 240 / 121006.6 4.5 3.2
2016-Sep-19 04:00N 67°54' W 115°00'0 0.0 230 / 111006.4 5.8 4.1
2016-Sep-19 02:00N 67°54' W 115°00'0 0.0 250 / 111006.0 7.6 4.4
2016-Sep-19 01:00N 67°54' W 115°00'0 0.0 280 / 101005.5 9.2 5.1
2016-Sep-19 00:00N 67°54' W 115°00'0 0.0 310 / 71005.1 9.0 4.1
2016-Sep-18 21:00N 67°54' W 115°00'0 0.0 020 / 21004.1 6.0 4.1
2016-Sep-18 19:00N 67°54' W 115°00'0 0.0 240 / 51003.8 4.2 2.7
2016-Sep-18 16:00N 67°54' W 115°00'2 0.8 270 / 61003.3 0.7 0.3
2016-Sep-18 13:00N 67°54' W 114°54'1616.4 290 / 91001.7 1.3 0.7
2016-Sep-18 12:00N 68°06' W 114°24'3612.0 320 / 131000.5 1.9 1.8
2016-Sep-18 09:00N 68°36' W 113°30'1919.4 330 / 21998.1 4.9 4.1
2016-Sep-18 08:00N 68°48' W 114°12'3115.3 290 / 18997.8 5.3 4.0
2016-Sep-18 06:00N 69°00' W 115°30'2120.9 300 / 17997.6 3.8 3.3
2016-Sep-18 05:00N 69°12' W 116°18'1616.0 300 / 17997.5 3.0 2.5
2016-Sep-18 04:00N 69°18' W 117°00'1818.0 320 / 13997.4 2.4 1.6
2016-Sep-18 03:00N 69°24' W 117°48'1414.0 310 / 14997.4 2.3 1.3
2016-Sep-18 02:00N 69°30' W 118°24'7117.7 310 / 14997.3 2.5 1.1
2016-Sep-17 22:00N 69°54' W 121°36'3115.5 280 / 17996.4 3.0 1.1
2016-Sep-17 20:00N 69°54' W 123°06'1514.6 270 / 9995.5 2.6 0.9
2016-Sep-17 19:00N 69°42' W 123°30'9 8.7 280 / 5995.2 2.9 1.2
2016-Sep-17 18:00N 69°36' W 123°48'6 3.2 300 / 8995.3 3.8 2.4
2016-Sep-17 16:00N 69°42' W 123°42'2 2.1 330 / 12994.5 3.3 2.3
2016-Sep-17 15:00N 69°42' W 123°36'6 3.0 330 / 10994.0 3.7 3.3
2016-Sep-17 13:00N 69°48' W 123°36'1818.1 300 / 9993.4 4.2 4.0
2016-Sep-17 12:00N 70°06' W 123°42'2019.7 270 / 8993.0 3.8 3.7
2016-Sep-17 11:00N 70°24' W 124°06'1717.0 240 / 8992.9 3.2 3.1
2016-Sep-17 10:00N 70°36' W 124°42'1615.6 260 / 13992.6 3.1 3.0
2016-Sep-17 09:00N 70°48' W 125°12'1615.5 270 / 9992.6 2.6 2.6
2016-Sep-17 08:00N 71°00' W 125°42'3517.3 240 / 6992.4 2.6 2.6
2016-Sep-17 06:00N 71°30' W 126°36'2020.3 200 / 11992.3 2.4 2.3
2016-Sep-17 05:00N 71°48' W 127°06'1111.1 190 / 12992.6 2.1 2.1
2016-Sep-17 04:00N 71°54' W 127°36'1818.1 160 / 8993.4 1.9 0.5
2016-Sep-17 03:00N 72°12' W 127°42'   150 / 10994.2 1.1-1.1

Dump ship's entire track history